sensor_id;sensor_type;location;lat;lon;timestamp;P1;durP1;ratioP1;P2;durP2;ratioP2
23384;SDS011;11865;45.394;10.978;2023-05-19T00:00:35;7.05;;;3.72;;
23384;SDS011;11865;45.394;10.978;2023-05-19T00:03:03;6.10;;;3.60;;
23384;SDS011;11865;45.394;10.978;2023-05-19T00:05:31;12.40;;;4.50;;
23384;SDS011;11865;45.394;10.978;2023-05-19T00:07:59;7.97;;;3.90;;
23384;SDS011;11865;45.394;10.978;2023-05-19T00:10:27;10.38;;;3.78;;
23384;SDS011;11865;45.394;10.978;2023-05-19T00:12:57;10.02;;;4.10;;
23384;SDS011;11865;45.394;10.978;2023-05-19T00:18:18;11.95;;;4.07;;
23384;SDS011;11865;45.394;10.978;2023-05-19T00:20:46;7.90;;;3.70;;
23384;SDS011;11865;45.394;10.978;2023-05-19T00:23:13;6.25;;;3.30;;
23384;SDS011;11865;45.394;10.978;2023-05-19T00:25:41;7.63;;;3.25;;
23384;SDS011;11865;45.394;10.978;2023-05-19T00:28:09;5.88;;;3.47;;
23384;SDS011;11865;45.394;10.978;2023-05-19T00:30:36;7.45;;;4.13;;
23384;SDS011;11865;45.394;10.978;2023-05-19T00:33:04;7.60;;;3.90;;
23384;SDS011;11865;45.394;10.978;2023-05-19T00:35:31;8.90;;;3.70;;
23384;SDS011;11865;45.394;10.978;2023-05-19T00:37:59;8.80;;;3.95;;
23384;SDS011;11865;45.394;10.978;2023-05-19T00:40:26;4.88;;;3.63;;
23384;SDS011;11865;45.394;10.978;2023-05-19T00:42:57;6.68;;;4.07;;
23384;SDS011;11865;45.394;10.978;2023-05-19T00:45:24;6.82;;;3.97;;
23384;SDS011;11865;45.394;10.978;2023-05-19T00:47:52;6.55;;;3.20;;
23384;SDS011;11865;45.394;10.978;2023-05-19T00:50:20;7.95;;;3.75;;
23384;SDS011;11865;45.394;10.978;2023-05-19T00:52:47;6.47;;;3.70;;
23384;SDS011;11865;45.394;10.978;2023-05-19T00:55:15;7.50;;;3.90;;
23384;SDS011;11865;45.394;10.978;2023-05-19T00:57:43;5.15;;;3.72;;
23384;SDS011;11865;45.394;10.978;2023-05-19T01:00:12;5.32;;;3.50;;
23384;SDS011;11865;45.394;10.978;2023-05-19T01:02:39;6.03;;;3.17;;
23384;SDS011;11865;45.394;10.978;2023-05-19T01:05:08;5.97;;;3.83;;
23384;SDS011;11865;45.394;10.978;2023-05-19T01:07:36;14.82;;;4.90;;
23384;SDS011;11865;45.394;10.978;2023-05-19T01:10:04;6.32;;;3.92;;
23384;SDS011;11865;45.394;10.978;2023-05-19T01:12:32;6.75;;;3.72;;
23384;SDS011;11865;45.394;10.978;2023-05-19T01:15:04;7.93;;;3.83;;
23384;SDS011;11865;45.394;10.978;2023-05-19T01:17:35;4.95;;;3.15;;
23384;SDS011;11865;45.394;10.978;2023-05-19T01:20:20;7.05;;;3.63;;
23384;SDS011;11865;45.394;10.978;2023-05-19T01:23:11;8.23;;;3.72;;
23384;SDS011;11865;45.394;10.978;2023-05-19T01:31:20;5.82;;;3.47;;
23384;SDS011;11865;45.394;10.978;2023-05-19T01:33:51;6.50;;;3.60;;
23384;SDS011;11865;45.394;10.978;2023-05-19T01:36:21;9.48;;;3.83;;
23384;SDS011;11865;45.394;10.978;2023-05-19T01:38:50;5.35;;;3.72;;
23384;SDS011;11865;45.394;10.978;2023-05-19T01:41:19;7.38;;;3.80;;
23384;SDS011;11865;45.394;10.978;2023-05-19T01:43:50;7.40;;;3.38;;
23384;SDS011;11865;45.394;10.978;2023-05-19T01:46:20;6.32;;;3.10;;
23384;SDS011;11865;45.394;10.978;2023-05-19T01:48:49;4.50;;;3.60;;
23384;SDS011;11865;45.394;10.978;2023-05-19T01:51:18;6.97;;;3.60;;
23384;SDS011;11865;45.394;10.978;2023-05-19T01:53:46;5.60;;;3.25;;
23384;SDS011;11865;45.394;10.978;2023-05-19T01:56:14;5.03;;;3.17;;
23384;SDS011;11865;45.394;10.978;2023-05-19T01:58:52;4.82;;;3.25;;
23384;SDS011;11865;45.394;10.978;2023-05-19T02:09:51;6.32;;;3.22;;
23384;SDS011;11865;45.394;10.978;2023-05-19T02:12:27;8.15;;;3.20;;
23384;SDS011;11865;45.394;10.978;2023-05-19T02:17:39;5.38;;;3.65;;
23384;SDS011;11865;45.394;10.978;2023-05-19T02:20:09;5.18;;;3.42;;
23384;SDS011;11865;45.394;10.978;2023-05-19T02:22:37;8.55;;;4.00;;
23384;SDS011;11865;45.394;10.978;2023-05-19T02:25:06;6.45;;;3.50;;
23384;SDS011;11865;45.394;10.978;2023-05-19T02:27:36;6.43;;;3.65;;
23384;SDS011;11865;45.394;10.978;2023-05-19T02:30:04;10.05;;;4.43;;
23384;SDS011;11865;45.394;10.978;2023-05-19T02:32:35;7.40;;;3.78;;
23384;SDS011;11865;45.394;10.978;2023-05-19T02:35:03;4.63;;;3.58;;
23384;SDS011;11865;45.394;10.978;2023-05-19T02:37:31;5.43;;;3.80;;
23384;SDS011;11865;45.394;10.978;2023-05-19T02:39:59;5.75;;;3.80;;
23384;SDS011;11865;45.394;10.978;2023-05-19T02:42:26;5.60;;;3.80;;
23384;SDS011;11865;45.394;10.978;2023-05-19T02:44:54;5.75;;;4.05;;
23384;SDS011;11865;45.394;10.978;2023-05-19T02:47:21;5.63;;;3.70;;
23384;SDS011;11865;45.394;10.978;2023-05-19T02:49:49;5.97;;;3.63;;
23384;SDS011;11865;45.394;10.978;2023-05-19T02:52:16;6.35;;;4.00;;
23384;SDS011;11865;45.394;10.978;2023-05-19T02:54:44;6.82;;;4.30;;
23384;SDS011;11865;45.394;10.978;2023-05-19T02:57:12;11.93;;;4.20;;
23384;SDS011;11865;45.394;10.978;2023-05-19T02:59:39;6.68;;;4.15;;
23384;SDS011;11865;45.394;10.978;2023-05-19T03:02:08;6.70;;;4.07;;
23384;SDS011;11865;45.394;10.978;2023-05-19T03:04:36;6.43;;;4.50;;
23384;SDS011;11865;45.394;10.978;2023-05-19T03:07:08;7.37;;;4.77;;
23384;SDS011;11865;45.394;10.978;2023-05-19T03:09:36;7.47;;;4.13;;
23384;SDS011;11865;45.394;10.978;2023-05-19T03:12:04;8.32;;;5.13;;
23384;SDS011;11865;45.394;10.978;2023-05-19T03:14:33;9.05;;;4.45;;
23384;SDS011;11865;45.394;10.978;2023-05-19T03:17:03;8.57;;;4.70;;
23384;SDS011;11865;45.394;10.978;2023-05-19T03:19:33;11.32;;;4.88;;
23384;SDS011;11865;45.394;10.978;2023-05-19T03:22:01;10.40;;;4.80;;
23384;SDS011;11865;45.394;10.978;2023-05-19T03:24:30;8.60;;;5.20;;
23384;SDS011;11865;45.394;10.978;2023-05-19T03:26:57;9.95;;;5.28;;
23384;SDS011;11865;45.394;10.978;2023-05-19T03:29:25;7.85;;;4.82;;
23384;SDS011;11865;45.394;10.978;2023-05-19T03:31:53;12.23;;;5.45;;
23384;SDS011;11865;45.394;10.978;2023-05-19T03:34:20;10.20;;;5.32;;
23384;SDS011;11865;45.394;10.978;2023-05-19T03:36:49;11.43;;;5.35;;
23384;SDS011;11865;45.394;10.978;2023-05-19T03:39:16;11.88;;;4.68;;
23384;SDS011;11865;45.394;10.978;2023-05-19T03:41:46;10.77;;;4.93;;
23384;SDS011;11865;45.394;10.978;2023-05-19T03:44:14;10.15;;;4.53;;
23384;SDS011;11865;45.394;10.978;2023-05-19T03:46:42;9.40;;;4.70;;
23384;SDS011;11865;45.394;10.978;2023-05-19T03:49:10;9.23;;;4.63;;
23384;SDS011;11865;45.394;10.978;2023-05-19T03:51:57;9.60;;;4.60;;
23384;SDS011;11865;45.394;10.978;2023-05-19T03:54:32;10.68;;;4.85;;
23384;SDS011;11865;45.394;10.978;2023-05-19T03:56:59;12.77;;;5.35;;
23384;SDS011;11865;45.394;10.978;2023-05-19T03:59:29;8.65;;;4.82;;
23384;SDS011;11865;45.394;10.978;2023-05-19T04:01:57;9.52;;;5.05;;
23384;SDS011;11865;45.394;10.978;2023-05-19T04:04:25;15.43;;;5.10;;
23384;SDS011;11865;45.394;10.978;2023-05-19T04:06:54;11.82;;;5.57;;
23384;SDS011;11865;45.394;10.978;2023-05-19T04:09:22;10.98;;;4.85;;
23384;SDS011;11865;45.394;10.978;2023-05-19T04:11:54;9.10;;;5.05;;
23384;SDS011;11865;45.394;10.978;2023-05-19T04:14:23;8.25;;;4.65;;
23384;SDS011;11865;45.394;10.978;2023-05-19T04:16:50;11.27;;;5.35;;
23384;SDS011;11865;45.394;10.978;2023-05-19T04:19:19;10.13;;;5.70;;
23384;SDS011;11865;45.394;10.978;2023-05-19T04:21:46;7.90;;;5.13;;
23384;SDS011;11865;45.394;10.978;2023-05-19T04:24:14;17.13;;;6.88;;
23384;SDS011;11865;45.394;10.978;2023-05-19T04:26:42;13.35;;;6.40;;
23384;SDS011;11865;45.394;10.978;2023-05-19T04:29:13;7.95;;;5.40;;
23384;SDS011;11865;45.394;10.978;2023-05-19T04:31:44;7.93;;;4.65;;
23384;SDS011;11865;45.394;10.978;2023-05-19T04:34:12;10.45;;;5.18;;
23384;SDS011;11865;45.394;10.978;2023-05-19T04:36:39;9.27;;;5.47;;
23384;SDS011;11865;45.394;10.978;2023-05-19T04:39:08;9.38;;;5.13;;
23384;SDS011;11865;45.394;10.978;2023-05-19T04:41:41;12.75;;;5.72;;
23384;SDS011;11865;45.394;10.978;2023-05-19T04:44:11;11.93;;;5.13;;
23384;SDS011;11865;45.394;10.978;2023-05-19T04:46:39;11.15;;;5.03;;
23384;SDS011;11865;45.394;10.978;2023-05-19T04:49:08;15.05;;;5.30;;
23384;SDS011;11865;45.394;10.978;2023-05-19T04:51:38;9.02;;;5.00;;
23384;SDS011;11865;45.394;10.978;2023-05-19T04:54:08;10.27;;;5.57;;
23384;SDS011;11865;45.394;10.978;2023-05-19T04:56:36;12.95;;;5.60;;
23384;SDS011;11865;45.394;10.978;2023-05-19T04:59:04;19.80;;;5.57;;
23384;SDS011;11865;45.394;10.978;2023-05-19T05:01:32;12.05;;;5.28;;
23384;SDS011;11865;45.394;10.978;2023-05-19T05:04:00;9.90;;;5.57;;
23384;SDS011;11865;45.394;10.978;2023-05-19T05:06:29;9.80;;;5.22;;
23384;SDS011;11865;45.394;10.978;2023-05-19T05:08:57;9.38;;;5.97;;
23384;SDS011;11865;45.394;10.978;2023-05-19T05:11:30;11.18;;;5.03;;
23384;SDS011;11865;45.394;10.978;2023-05-19T05:13:59;7.93;;;5.07;;
23384;SDS011;11865;45.394;10.978;2023-05-19T05:16:28;13.57;;;5.97;;
23384;SDS011;11865;45.394;10.978;2023-05-19T05:18:57;8.68;;;5.10;;
23384;SDS011;11865;45.394;10.978;2023-05-19T05:21:26;7.20;;;5.07;;
23384;SDS011;11865;45.394;10.978;2023-05-19T05:23:55;12.27;;;4.90;;
23384;SDS011;11865;45.394;10.978;2023-05-19T05:26:26;9.70;;;4.90;;
23384;SDS011;11865;45.394;10.978;2023-05-19T05:28:56;8.85;;;5.35;;
23384;SDS011;11865;45.394;10.978;2023-05-19T05:31:24;6.70;;;4.35;;
23384;SDS011;11865;45.394;10.978;2023-05-19T05:33:52;8.30;;;4.60;;
23384;SDS011;11865;45.394;10.978;2023-05-19T05:36:23;9.88;;;4.90;;
23384;SDS011;11865;45.394;10.978;2023-05-19T05:38:50;9.57;;;5.18;;
23384;SDS011;11865;45.394;10.978;2023-05-19T05:41:18;6.47;;;4.60;;
23384;SDS011;11865;45.394;10.978;2023-05-19T05:43:47;9.13;;;4.93;;
23384;SDS011;11865;45.394;10.978;2023-05-19T05:46:15;12.73;;;5.22;;
23384;SDS011;11865;45.394;10.978;2023-05-19T05:48:43;8.10;;;4.88;;
23384;SDS011;11865;45.394;10.978;2023-05-19T05:51:11;17.42;;;5.53;;
23384;SDS011;11865;45.394;10.978;2023-05-19T05:53:42;11.65;;;4.82;;
23384;SDS011;11865;45.394;10.978;2023-05-19T05:56:16;7.90;;;4.95;;
23384;SDS011;11865;45.394;10.978;2023-05-19T05:58:49;8.15;;;5.35;;
23384;SDS011;11865;45.394;10.978;2023-05-19T06:01:16;12.55;;;5.57;;
23384;SDS011;11865;45.394;10.978;2023-05-19T06:03:44;7.38;;;5.00;;
23384;SDS011;11865;45.394;10.978;2023-05-19T06:06:16;10.18;;;4.47;;
23384;SDS011;11865;45.394;10.978;2023-05-19T06:08:44;9.43;;;5.07;;
23384;SDS011;11865;45.394;10.978;2023-05-19T06:11:11;22.17;;;11.05;;
23384;SDS011;11865;45.394;10.978;2023-05-19T06:13:40;9.38;;;5.32;;
23384;SDS011;11865;45.394;10.978;2023-05-19T06:16:12;9.60;;;4.55;;
23384;SDS011;11865;45.394;10.978;2023-05-19T06:18:43;16.70;;;5.97;;
23384;SDS011;11865;45.394;10.978;2023-05-19T06:21:11;11.45;;;5.22;;
23384;SDS011;11865;45.394;10.978;2023-05-19T06:23:40;8.48;;;4.75;;
23384;SDS011;11865;45.394;10.978;2023-05-19T06:26:10;10.80;;;5.13;;
23384;SDS011;11865;45.394;10.978;2023-05-19T06:28:37;10.20;;;4.70;;
23384;SDS011;11865;45.394;10.978;2023-05-19T06:31:05;10.63;;;4.78;;
23384;SDS011;11865;45.394;10.978;2023-05-19T06:33:46;9.00;;;4.45;;
23384;SDS011;11865;45.394;10.978;2023-05-19T06:36:15;9.77;;;4.80;;
23384;SDS011;11865;45.394;10.978;2023-05-19T06:38:44;8.88;;;4.65;;
23384;SDS011;11865;45.394;10.978;2023-05-19T06:41:11;12.13;;;5.72;;
23384;SDS011;11865;45.394;10.978;2023-05-19T06:43:40;11.10;;;4.97;;
23384;SDS011;11865;45.394;10.978;2023-05-19T06:46:12;14.35;;;5.40;;
23384;SDS011;11865;45.394;10.978;2023-05-19T06:48:42;10.18;;;5.20;;
23384;SDS011;11865;45.394;10.978;2023-05-19T06:51:10;6.20;;;4.35;;
23384;SDS011;11865;45.394;10.978;2023-05-19T06:53:39;10.45;;;4.20;;
23384;SDS011;11865;45.394;10.978;2023-05-19T06:56:08;7.22;;;3.65;;
23384;SDS011;11865;45.394;10.978;2023-05-19T06:58:37;11.82;;;4.45;;
23384;SDS011;11865;45.394;10.978;2023-05-19T07:01:05;12.93;;;3.80;;
23384;SDS011;11865;45.394;10.978;2023-05-19T07:03:39;8.93;;;4.32;;
23384;SDS011;11865;45.394;10.978;2023-05-19T07:06:08;10.25;;;3.72;;
23384;SDS011;11865;45.394;10.978;2023-05-19T07:08:36;13.25;;;4.03;;
23384;SDS011;11865;45.394;10.978;2023-05-19T07:11:05;9.88;;;3.92;;
23384;SDS011;11865;45.394;10.978;2023-05-19T07:13:33;6.78;;;4.15;;
23384;SDS011;11865;45.394;10.978;2023-05-19T07:16:01;14.00;;;4.25;;
23384;SDS011;11865;45.394;10.978;2023-05-19T07:18:28;8.55;;;3.95;;
23384;SDS011;11865;45.394;10.978;2023-05-19T07:20:58;7.82;;;4.38;;
23384;SDS011;11865;45.394;10.978;2023-05-19T07:23:25;6.88;;;4.00;;
23384;SDS011;11865;45.394;10.978;2023-05-19T07:25:56;13.32;;;4.70;;
23384;SDS011;11865;45.394;10.978;2023-05-19T07:28:23;7.68;;;4.00;;
23384;SDS011;11865;45.394;10.978;2023-05-19T07:30:51;6.78;;;3.75;;
23384;SDS011;11865;45.394;10.978;2023-05-19T07:33:19;12.48;;;4.13;;
23384;SDS011;11865;45.394;10.978;2023-05-19T07:35:46;6.38;;;4.18;;
23384;SDS011;11865;45.394;10.978;2023-05-19T07:38:14;7.18;;;4.40;;
23384;SDS011;11865;45.394;10.978;2023-05-19T07:40:42;9.50;;;4.15;;
23384;SDS011;11865;45.394;10.978;2023-05-19T07:43:09;7.50;;;4.03;;
23384;SDS011;11865;45.394;10.978;2023-05-19T07:45:37;7.70;;;4.30;;
23384;SDS011;11865;45.394;10.978;2023-05-19T07:48:05;9.48;;;4.43;;
23384;SDS011;11865;45.394;10.978;2023-05-19T07:50:33;12.40;;;4.07;;
23384;SDS011;11865;45.394;10.978;2023-05-19T07:53:01;6.93;;;4.35;;
23384;SDS011;11865;45.394;10.978;2023-05-19T07:55:29;8.02;;;4.53;;
23384;SDS011;11865;45.394;10.978;2023-05-19T07:57:56;9.48;;;4.22;;
23384;SDS011;11865;45.394;10.978;2023-05-19T08:00:24;10.32;;;4.32;;
23384;SDS011;11865;45.394;10.978;2023-05-19T08:02:52;11.30;;;4.38;;
23384;SDS011;11865;45.394;10.978;2023-05-19T08:05:19;10.07;;;4.35;;
23384;SDS011;11865;45.394;10.978;2023-05-19T08:07:47;8.75;;;4.60;;
23384;SDS011;11865;45.394;10.978;2023-05-19T08:10:14;10.10;;;4.13;;
23384;SDS011;11865;45.394;10.978;2023-05-19T08:12:42;6.80;;;3.72;;
23384;SDS011;11865;45.394;10.978;2023-05-19T08:15:10;8.85;;;4.13;;
23384;SDS011;11865;45.394;10.978;2023-05-19T08:17:37;8.10;;;4.05;;
23384;SDS011;11865;45.394;10.978;2023-05-19T08:20:05;8.15;;;3.60;;
23384;SDS011;11865;45.394;10.978;2023-05-19T08:22:35;7.72;;;3.90;;
23384;SDS011;11865;45.394;10.978;2023-05-19T08:25:03;9.80;;;4.15;;
23384;SDS011;11865;45.394;10.978;2023-05-19T08:27:31;6.68;;;3.70;;
23384;SDS011;11865;45.394;10.978;2023-05-19T08:29:59;5.65;;;4.35;;
23384;SDS011;11865;45.394;10.978;2023-05-19T08:32:26;10.63;;;4.05;;
23384;SDS011;11865;45.394;10.978;2023-05-19T08:34:54;5.90;;;4.22;;
23384;SDS011;11865;45.394;10.978;2023-05-19T08:37:21;9.63;;;4.07;;
23384;SDS011;11865;45.394;10.978;2023-05-19T08:39:49;9.07;;;4.20;;
23384;SDS011;11865;45.394;10.978;2023-05-19T08:42:16;7.07;;;3.95;;
23384;SDS011;11865;45.394;10.978;2023-05-19T08:44:44;7.80;;;3.60;;
23384;SDS011;11865;45.394;10.978;2023-05-19T08:47:12;5.57;;;3.53;;
23384;SDS011;11865;45.394;10.978;2023-05-19T08:49:45;4.47;;;2.78;;
23384;SDS011;11865;45.394;10.978;2023-05-19T08:58:25;10.80;;;3.45;;
23384;SDS011;11865;45.394;10.978;2023-05-19T09:00:54;12.68;;;4.10;;
23384;SDS011;11865;45.394;10.978;2023-05-19T09:03:23;3.45;;;2.47;;
23384;SDS011;11865;45.394;10.978;2023-05-19T09:05:52;10.70;;;3.95;;
23384;SDS011;11865;45.394;10.978;2023-05-19T09:08:20;5.57;;;2.90;;
23384;SDS011;11865;45.394;10.978;2023-05-19T09:10:48;4.78;;;3.00;;
23384;SDS011;11865;45.394;10.978;2023-05-19T09:13:16;5.80;;;3.83;;
23384;SDS011;11865;45.394;10.978;2023-05-19T09:15:43;6.43;;;3.30;;
23384;SDS011;11865;45.394;10.978;2023-05-19T09:18:12;7.35;;;3.40;;
23384;SDS011;11865;45.394;10.978;2023-05-19T09:20:41;6.70;;;3.33;;
23384;SDS011;11865;45.394;10.978;2023-05-19T09:23:13;6.10;;;3.95;;
23384;SDS011;11865;45.394;10.978;2023-05-19T09:25:46;7.45;;;3.75;;
23384;SDS011;11865;45.394;10.978;2023-05-19T09:31:04;6.35;;;3.83;;
23384;SDS011;11865;45.394;10.978;2023-05-19T09:33:33;8.88;;;4.00;;
23384;SDS011;11865;45.394;10.978;2023-05-19T09:36:02;8.52;;;3.63;;
23384;SDS011;11865;45.394;10.978;2023-05-19T09:38:32;10.07;;;4.28;;
23384;SDS011;11865;45.394;10.978;2023-05-19T09:41:00;5.38;;;3.45;;
23384;SDS011;11865;45.394;10.978;2023-05-19T09:43:28;7.10;;;3.85;;
23384;SDS011;11865;45.394;10.978;2023-05-19T09:45:59;6.88;;;3.72;;
23384;SDS011;11865;45.394;10.978;2023-05-19T09:48:35;8.35;;;4.35;;
23384;SDS011;11865;45.394;10.978;2023-05-19T09:51:03;8.98;;;4.28;;
23384;SDS011;11865;45.394;10.978;2023-05-19T09:53:33;7.43;;;4.05;;
23384;SDS011;11865;45.394;10.978;2023-05-19T09:56:01;6.65;;;3.83;;
23384;SDS011;11865;45.394;10.978;2023-05-19T09:58:30;9.88;;;4.20;;
23384;SDS011;11865;45.394;10.978;2023-05-19T10:01:02;5.30;;;3.57;;
23384;SDS011;11865;45.394;10.978;2023-05-19T10:03:30;12.20;;;4.35;;
23384;SDS011;11865;45.394;10.978;2023-05-19T10:06:05;6.78;;;3.90;;
23384;SDS011;11865;45.394;10.978;2023-05-19T10:08:35;7.53;;;4.18;;
23384;SDS011;11865;45.394;10.978;2023-05-19T10:11:03;5.63;;;3.95;;
23384;SDS011;11865;45.394;10.978;2023-05-19T10:13:31;10.48;;;4.20;;
23384;SDS011;11865;45.394;10.978;2023-05-19T10:16:01;7.75;;;4.40;;
23384;SDS011;11865;45.394;10.978;2023-05-19T10:18:29;7.57;;;4.03;;
23384;SDS011;11865;45.394;10.978;2023-05-19T10:20:59;6.72;;;4.10;;
23384;SDS011;11865;45.394;10.978;2023-05-19T10:23:28;5.20;;;3.45;;
23384;SDS011;11865;45.394;10.978;2023-05-19T10:25:56;5.75;;;3.95;;
23384;SDS011;11865;45.394;10.978;2023-05-19T10:28:30;6.95;;;3.95;;
23384;SDS011;11865;45.394;10.978;2023-05-19T10:31:03;6.55;;;3.92;;
23384;SDS011;11865;45.394;10.978;2023-05-19T10:39:51;10.45;;;3.60;;
23384;SDS011;11865;45.394;10.978;2023-05-19T10:47:10;7.30;;;4.57;;
23384;SDS011;11865;45.394;10.978;2023-05-19T10:49:38;8.65;;;4.50;;
23384;SDS011;11865;45.394;10.978;2023-05-19T10:52:17;7.38;;;4.22;;
23384;SDS011;11865;45.394;10.978;2023-05-19T10:54:52;11.30;;;4.70;;
23384;SDS011;11865;45.394;10.978;2023-05-19T10:57:24;8.70;;;4.65;;
23384;SDS011;11865;45.394;10.978;2023-05-19T10:59:54;6.28;;;4.43;;
23384;SDS011;11865;45.394;10.978;2023-05-19T11:02:39;6.70;;;4.70;;
23384;SDS011;11865;45.394;10.978;2023-05-19T11:05:09;11.90;;;4.65;;
23384;SDS011;11865;45.394;10.978;2023-05-19T11:07:40;8.18;;;4.13;;
23384;SDS011;11865;45.394;10.978;2023-05-19T11:10:10;5.95;;;4.10;;
23384;SDS011;11865;45.394;10.978;2023-05-19T11:12:39;7.18;;;4.20;;
23384;SDS011;11865;45.394;10.978;2023-05-19T11:15:09;6.57;;;4.70;;
23384;SDS011;11865;45.394;10.978;2023-05-19T11:17:39;5.68;;;4.20;;
23384;SDS011;11865;45.394;10.978;2023-05-19T11:20:08;7.75;;;4.72;;
23384;SDS011;11865;45.394;10.978;2023-05-19T11:28:16;6.40;;;4.40;;
23384;SDS011;11865;45.394;10.978;2023-05-19T11:30:46;6.95;;;4.63;;
23384;SDS011;11865;45.394;10.978;2023-05-19T11:33:18;7.05;;;4.97;;
23384;SDS011;11865;45.394;10.978;2023-05-19T11:35:48;7.15;;;4.40;;
23384;SDS011;11865;45.394;10.978;2023-05-19T11:38:17;10.40;;;5.55;;
23384;SDS011;11865;45.394;10.978;2023-05-19T11:40:45;9.80;;;5.15;;
23384;SDS011;11865;45.394;10.978;2023-05-19T11:43:15;11.10;;;5.63;;
23384;SDS011;11865;45.394;10.978;2023-05-19T11:45:43;5.68;;;4.40;;
23384;SDS011;11865;45.394;10.978;2023-05-19T11:48:11;11.63;;;5.40;;
23384;SDS011;11865;45.394;10.978;2023-05-19T11:50:40;9.90;;;4.93;;
23384;SDS011;11865;45.394;10.978;2023-05-19T11:53:10;6.00;;;4.43;;
23384;SDS011;11865;45.394;10.978;2023-05-19T11:55:45;5.75;;;4.20;;
23384;SDS011;11865;45.394;10.978;2023-05-19T12:06:56;6.18;;;3.63;;
23384;SDS011;11865;45.394;10.978;2023-05-19T12:09:23;6.13;;;3.67;;
23384;SDS011;11865;45.394;10.978;2023-05-19T12:11:53;5.97;;;3.70;;
23384;SDS011;11865;45.394;10.978;2023-05-19T12:14:21;8.55;;;3.80;;
23384;SDS011;11865;45.394;10.978;2023-05-19T12:16:49;4.60;;;3.22;;
23384;SDS011;11865;45.394;10.978;2023-05-19T12:19:16;7.60;;;3.80;;
23384;SDS011;11865;45.394;10.978;2023-05-19T12:21:44;4.80;;;3.30;;
23384;SDS011;11865;45.394;10.978;2023-05-19T12:24:12;6.85;;;3.75;;
23384;SDS011;11865;45.394;10.978;2023-05-19T12:26:39;5.75;;;3.50;;
23384;SDS011;11865;45.394;10.978;2023-05-19T12:29:07;5.95;;;3.75;;
23384;SDS011;11865;45.394;10.978;2023-05-19T12:31:34;9.63;;;4.40;;
23384;SDS011;11865;45.394;10.978;2023-05-19T12:34:02;6.75;;;3.60;;
23384;SDS011;11865;45.394;10.978;2023-05-19T12:36:30;9.23;;;3.58;;
23384;SDS011;11865;45.394;10.978;2023-05-19T12:38:58;6.57;;;4.00;;
23384;SDS011;11865;45.394;10.978;2023-05-19T12:41:26;5.93;;;3.60;;
23384;SDS011;11865;45.394;10.978;2023-05-19T12:43:55;7.15;;;4.00;;
23384;SDS011;11865;45.394;10.978;2023-05-19T12:46:22;5.35;;;3.83;;
23384;SDS011;11865;45.394;10.978;2023-05-19T12:48:50;7.97;;;3.30;;
23384;SDS011;11865;45.394;10.978;2023-05-19T12:51:18;5.35;;;3.70;;
23384;SDS011;11865;45.394;10.978;2023-05-19T12:53:48;8.90;;;3.47;;
23384;SDS011;11865;45.394;10.978;2023-05-19T12:56:16;7.38;;;4.35;;
23384;SDS011;11865;45.394;10.978;2023-05-19T12:58:43;9.93;;;3.85;;
23384;SDS011;11865;45.394;10.978;2023-05-19T13:01:15;8.82;;;4.13;;
23384;SDS011;11865;45.394;10.978;2023-05-19T13:03:44;10.88;;;4.65;;
23384;SDS011;11865;45.394;10.978;2023-05-19T13:06:12;6.90;;;4.32;;
23384;SDS011;11865;45.394;10.978;2023-05-19T13:08:39;6.85;;;4.45;;
23384;SDS011;11865;45.394;10.978;2023-05-19T13:11:07;5.88;;;4.35;;
23384;SDS011;11865;45.394;10.978;2023-05-19T13:13:35;6.43;;;3.95;;
23384;SDS011;11865;45.394;10.978;2023-05-19T13:16:03;10.50;;;4.40;;
23384;SDS011;11865;45.394;10.978;2023-05-19T13:18:31;7.22;;;5.05;;
23384;SDS011;11865;45.394;10.978;2023-05-19T13:20:58;10.93;;;5.13;;
23384;SDS011;11865;45.394;10.978;2023-05-19T13:23:25;7.28;;;4.35;;
23384;SDS011;11865;45.394;10.978;2023-05-19T13:25:53;7.82;;;4.70;;
23384;SDS011;11865;45.394;10.978;2023-05-19T13:28:21;12.00;;;5.32;;
23384;SDS011;11865;45.394;10.978;2023-05-19T13:30:49;7.55;;;5.15;;
23384;SDS011;11865;45.394;10.978;2023-05-19T13:33:18;13.05;;;5.75;;
23384;SDS011;11865;45.394;10.978;2023-05-19T13:35:45;10.40;;;5.30;;
23384;SDS011;11865;45.394;10.978;2023-05-19T13:38:13;7.57;;;4.72;;
23384;SDS011;11865;45.394;10.978;2023-05-19T13:40:40;8.15;;;5.00;;
23384;SDS011;11865;45.394;10.978;2023-05-19T13:43:07;8.80;;;4.80;;
23384;SDS011;11865;45.394;10.978;2023-05-19T13:45:35;6.65;;;4.53;;
23384;SDS011;11865;45.394;10.978;2023-05-19T13:48:03;7.38;;;5.05;;
23384;SDS011;11865;45.394;10.978;2023-05-19T13:50:33;6.22;;;4.45;;
23384;SDS011;11865;45.394;10.978;2023-05-19T13:53:01;10.13;;;5.05;;
23384;SDS011;11865;45.394;10.978;2023-05-19T13:55:29;12.48;;;5.82;;
23384;SDS011;11865;45.394;10.978;2023-05-19T13:57:57;9.27;;;4.70;;
23384;SDS011;11865;45.394;10.978;2023-05-19T14:00:24;9.20;;;5.70;;
23384;SDS011;11865;45.394;10.978;2023-05-19T14:02:52;10.30;;;5.78;;
23384;SDS011;11865;45.394;10.978;2023-05-19T14:05:19;7.45;;;5.65;;
23384;SDS011;11865;45.394;10.978;2023-05-19T14:07:47;10.88;;;6.22;;
23384;SDS011;11865;45.394;10.978;2023-05-19T14:10:15;11.75;;;7.15;;
23384;SDS011;11865;45.394;10.978;2023-05-19T14:12:42;12.77;;;6.65;;
23384;SDS011;11865;45.394;10.978;2023-05-19T14:15:29;10.38;;;5.40;;
23384;SDS011;11865;45.394;10.978;2023-05-19T14:18:00;9.00;;;4.50;;
23384;SDS011;11865;45.394;10.978;2023-05-19T14:20:30;6.03;;;3.65;;
23384;SDS011;11865;45.394;10.978;2023-05-19T14:22:58;14.07;;;3.92;;
23384;SDS011;11865;45.394;10.978;2023-05-19T14:25:25;5.97;;;3.40;;
23384;SDS011;11865;45.394;10.978;2023-05-19T14:27:53;5.80;;;3.72;;
23384;SDS011;11865;45.394;10.978;2023-05-19T14:30:20;6.22;;;3.60;;
23384;SDS011;11865;45.394;10.978;2023-05-19T14:32:48;6.55;;;3.40;;
23384;SDS011;11865;45.394;10.978;2023-05-19T14:35:15;8.13;;;3.47;;
23384;SDS011;11865;45.394;10.978;2023-05-19T14:37:43;5.68;;;2.90;;
23384;SDS011;11865;45.394;10.978;2023-05-19T14:40:10;4.97;;;3.22;;
23384;SDS011;11865;45.394;10.978;2023-05-19T14:42:38;5.50;;;3.33;;
23384;SDS011;11865;45.394;10.978;2023-05-19T14:45:05;8.80;;;3.20;;
23384;SDS011;11865;45.394;10.978;2023-05-19T14:47:33;6.40;;;3.58;;
23384;SDS011;11865;45.394;10.978;2023-05-19T14:50:01;7.47;;;3.60;;
23384;SDS011;11865;45.394;10.978;2023-05-19T14:52:28;8.70;;;4.10;;
23384;SDS011;11865;45.394;10.978;2023-05-19T14:54:56;7.05;;;3.90;;
23384;SDS011;11865;45.394;10.978;2023-05-19T14:57:23;7.20;;;3.65;;
23384;SDS011;11865;45.394;10.978;2023-05-19T14:59:51;8.48;;;3.50;;
23384;SDS011;11865;45.394;10.978;2023-05-19T15:02:18;9.55;;;4.68;;
23384;SDS011;11865;45.394;10.978;2023-05-19T15:04:46;9.05;;;3.92;;
23384;SDS011;11865;45.394;10.978;2023-05-19T15:07:14;9.88;;;4.63;;
23384;SDS011;11865;45.394;10.978;2023-05-19T15:09:42;6.80;;;3.85;;
23384;SDS011;11865;45.394;10.978;2023-05-19T15:12:09;7.75;;;3.80;;
23384;SDS011;11865;45.394;10.978;2023-05-19T15:14:37;4.88;;;3.30;;
23384;SDS011;11865;45.394;10.978;2023-05-19T15:17:04;6.35;;;3.35;;
23384;SDS011;11865;45.394;10.978;2023-05-19T15:19:32;7.20;;;4.20;;
23384;SDS011;11865;45.394;10.978;2023-05-19T15:21:59;13.95;;;4.72;;
23384;SDS011;11865;45.394;10.978;2023-05-19T15:24:27;7.97;;;4.18;;
23384;SDS011;11865;45.394;10.978;2023-05-19T15:26:54;7.22;;;4.60;;
23384;SDS011;11865;45.394;10.978;2023-05-19T15:29:22;7.53;;;4.63;;
23384;SDS011;11865;45.394;10.978;2023-05-19T15:31:50;8.45;;;4.60;;
23384;SDS011;11865;45.394;10.978;2023-05-19T15:34:18;5.40;;;3.97;;